Montevideo, MN

8:34 PM CDT on July 30, 2014 (GMT -0500)
Near Chinhinta Park (KMNMONTE4) Elev 1024 ft | 44.94 °N, 95.72 °W | Change Station

Current weather conditions updated 4 seconds ago

Clear
Clear
73.4 °F
Feels Like 77 °F
N
0.0
Wind Variable Wind from North
Gusts 0.0 mph

Tomorrow is forecast to be nearly the same temperature as today.

Today
High -- | Low -- °F
--% Chance of Precip.
Yesterday
High -- | Low -- °F
Precip. -- in
6:06 AM 8:51 PM
Waxing Crescent, 15% visible
Pressure 30.08 in
Visibility 10.0 miles
Clouds Clear
Heat Index 77 °F
Dew Point 59 °F
Humidity 60%
Rainfall 0.00 in
Snow Depth Not available.
UV 0 out of 12
Pollen 6.70 out of 12
Air Quality Not available.
Flu Activity Not available.
METAR KMVE 310113Z AUTO 35003KT 10SM CLR 23/13 A3008 RMK AO2

More Conditions Fewer Conditions

Pressure 30.08 in
Visibility 10.0 miles
Clouds Clear
Heat Index 77 °F
Dew Point 59 °F
Humidity 60%
Rainfall 0.00 in
Snow Depth Not available.
UV 0 out of 12
Pollen 6.70 out of 12
Air Quality Not available.
Flu Activity Not available.
METAR KMVE 310113Z AUTO 35003KT 10SM CLR 23/13 A3008 RMK AO2

More Conditions Fewer Conditions

10-Day Weather Forecast

Almanac

Astronomy

Jul. 30, 2014 Rise Set
Actual Time 6:06 AM CDT 8:51 PM CDT
Civil Twilight 5:32 AM CDT 9:25 PM CDT
Nautical Twilight 4:49 AM CDT 10:08 PM CDT
Astronomical Twilight 3:59 AM CDT 10:57 PM CDT
Moon 9:50 AM CDT (7/30) 10:21 PM CDT (7/30)
Length of Visible Light 15h 53m
Length of Day
14h 45m
Tomorrow will be 2m 21s shorter.
Waxing Crescent, 15% of the Moon is Illuminated
Today
Waxing Crescent
Aug 3
First Quarter
Aug 10
Full
Aug 17
Last Quarter
Aug 25
New

Today's Extremes

State Highs State Lows

Community

WunderPhotos

Upload Photos

1,739,264 photos uploaded!

Nearby

Snow Depth

Station Depth Elevation
No new snow has been reported.

Earthquake Activity

City Distance Mag. Time & Date
No recent earthquake activity has been reported nearby.
Minimum magnitude displayed is 2.5.

Coastal Water Temperatures

Place Temperature
No Stations Reporting

Nearby Weather Stations

Station Location Temp. Heat Index Dew Point Humidity Wind Precip. Elev Updated Type
Near Chinhinta Park, Montevideo, MN 73.4 °F 77 °F 59 °F 60% North  at  0.0 mph 0.00 in / hr 1024 ft 8:34 PM CDT Rapid Fire
Near Windom Park, Montevideo, MN 73.6 °F 76 °F 61 °F 65% NNE  at  0.0 mph 0.00 in / hr 1004 ft 8:34 PM CDT Rapid Fire
MNDOT Hanley Falls MN-23 Mile Post 94, Hanley Falls, MN 76 °F 78 °F 57 °F 52% NNW  at  3 mph 0.00 in / hr 1068 ft 7:30 PM CDT MADIS
SW of Prinsburg, Prinsburg, MN 72.7 °F 76 °F 61 °F 66% WNW  at  0.0 mph 0.00 in / hr 1071 ft 8:30 PM CDT Normal

Show More Stations Show Fewer Stations